KHL weather

CLOSED Khan Jahan Ali Airport
Khulna, Khulna Division, Bangladesh

Public forecast

Using degrees Celsius for public forecast. Weather courtesy of forecast.io.

METAR (pilot weather report)

Closest report is Netaji Subhash Chandra Bose International Airport, 66.4 nm (123.0 km) W. Retrieved 2019/09/19 15:30 UTC (18 minutes ago):

VECC 191530Z 20007KT 3500 HZ SCT020 FEW030CB 30/27 Q1010 NOSIG

TAF (pilot weather forecast)

Closest forecast is Netaji Subhash Chandra Bose International Airport, 66.4 nm (123.0 km) W. Retrieved 2019/09/19 12:46 UTC (3 hours ago):

TAF VECC 191100Z 1912/2018 18005KT 3500 HZ SCT018 BKN100 BECMG 1919/1921 2800 BR HZ BECMG 2003/2005 4000 HZ BECMG 2016/2018 3000 HZ